sensor_id;sensor_type;location;lat;lon;timestamp;temperature;humidity
11925;DHT22;6022;48.768;18.608;2023-02-14T00:01:26;3.30;99.90
11925;DHT22;6022;48.768;18.608;2023-02-14T00:03:54;3.30;99.90
11925;DHT22;6022;48.768;18.608;2023-02-14T00:06:26;3.20;99.90
11925;DHT22;6022;48.768;18.608;2023-02-14T00:08:54;3.10;99.90
11925;DHT22;6022;48.768;18.608;2023-02-14T00:11:21;3.00;99.90
11925;DHT22;6022;48.768;18.608;2023-02-14T00:13:48;3.10;99.90
11925;DHT22;6022;48.768;18.608;2023-02-14T00:16:33;2.90;99.90
11925;DHT22;6022;48.768;18.608;2023-02-14T00:19:01;2.70;99.90
11925;DHT22;6022;48.768;18.608;2023-02-14T00:21:33;3.10;99.90
11925;DHT22;6022;48.768;18.608;2023-02-14T00:26:39;3.20;99.90
11925;DHT22;6022;48.768;18.608;2023-02-14T00:29:13;3.00;99.90
11925;DHT22;6022;48.768;18.608;2023-02-14T00:31:42;3.20;99.90
11925;DHT22;6022;48.768;18.608;2023-02-14T00:34:11;3.10;99.90
11925;DHT22;6022;48.768;18.608;2023-02-14T00:36:40;3.30;99.90
11925;DHT22;6022;48.768;18.608;2023-02-14T00:39:09;3.20;99.90
11925;DHT22;6022;48.768;18.608;2023-02-14T00:41:38;3.30;99.90
11925;DHT22;6022;48.768;18.608;2023-02-14T00:44:07;3.20;99.90
11925;DHT22;6022;48.768;18.608;2023-02-14T00:46:35;3.20;99.90
11925;DHT22;6022;48.768;18.608;2023-02-14T00:49:04;3.00;99.90
11925;DHT22;6022;48.768;18.608;2023-02-14T00:51:31;3.10;99.90
11925;DHT22;6022;48.768;18.608;2023-02-14T00:53:59;3.30;99.90
11925;DHT22;6022;48.768;18.608;2023-02-14T00:56:26;3.20;99.90
11925;DHT22;6022;48.768;18.608;2023-02-14T00:58:54;3.10;99.90
11925;DHT22;6022;48.768;18.608;2023-02-14T01:01:21;3.20;99.90
11925;DHT22;6022;48.768;18.608;2023-02-14T01:03:48;3.20;99.90
11925;DHT22;6022;48.768;18.608;2023-02-14T01:06:17;3.30;99.90
11925;DHT22;6022;48.768;18.608;2023-02-14T01:09:17;2.80;99.90
11925;DHT22;6022;48.768;18.608;2023-02-14T01:11:44;3.30;99.90
11925;DHT22;6022;48.768;18.608;2023-02-14T01:14:11;2.80;99.90
11925;DHT22;6022;48.768;18.608;2023-02-14T01:16:38;3.30;99.90
11925;DHT22;6022;48.768;18.608;2023-02-14T01:19:06;3.20;99.90
11925;DHT22;6022;48.768;18.608;2023-02-14T01:22:14;2.90;99.90
11925;DHT22;6022;48.768;18.608;2023-02-14T01:25:40;3.20;99.90
11925;DHT22;6022;48.768;18.608;2023-02-14T01:29:07;3.10;99.90
11925;DHT22;6022;48.768;18.608;2023-02-14T01:32:35;3.30;99.90
11925;DHT22;6022;48.768;18.608;2023-02-14T01:36:02;3.00;99.90
11925;DHT22;6022;48.768;18.608;2023-02-14T01:39:29;3.00;99.90
11925;DHT22;6022;48.768;18.608;2023-02-14T01:42:56;3.10;99.90
11925;DHT22;6022;48.768;18.608;2023-02-14T01:46:25;3.50;99.90
11925;DHT22;6022;48.768;18.608;2023-02-14T01:50:04;3.00;99.90
11925;DHT22;6022;48.768;18.608;2023-02-14T01:53:35;3.10;99.90
11925;DHT22;6022;48.768;18.608;2023-02-14T01:57:06;2.70;99.90
11925;DHT22;6022;48.768;18.608;2023-02-14T02:00:37;3.00;99.90
11925;DHT22;6022;48.768;18.608;2023-02-14T02:04:33;3.00;99.90
11925;DHT22;6022;48.768;18.608;2023-02-14T02:07:35;3.10;99.90
11925;DHT22;6022;48.768;18.608;2023-02-14T02:10:30;3.30;99.90
11925;DHT22;6022;48.768;18.608;2023-02-14T02:13:25;3.40;99.90
11925;DHT22;6022;48.768;18.608;2023-02-14T02:24:47;3.10;99.90
11925;DHT22;6022;48.768;18.608;2023-02-14T02:48:20;3.10;99.90
11925;DHT22;6022;48.768;18.608;2023-02-14T02:51:54;3.30;99.90
11925;DHT22;6022;48.768;18.608;2023-02-14T02:59:02;3.30;99.90
11925;DHT22;6022;48.768;18.608;2023-02-14T03:02:35;3.20;99.90
11925;DHT22;6022;48.768;18.608;2023-02-14T03:06:25;3.20;99.90
11925;DHT22;6022;48.768;18.608;2023-02-14T03:08:53;3.20;99.90
11925;DHT22;6022;48.768;18.608;2023-02-14T03:11:20;3.00;99.90
11925;DHT22;6022;48.768;18.608;2023-02-14T03:14:03;3.10;99.90
11925;DHT22;6022;48.768;18.608;2023-02-14T03:16:59;3.10;99.90
11925;DHT22;6022;48.768;18.608;2023-02-14T03:23:13;3.10;99.90
11925;DHT22;6022;48.768;18.608;2023-02-14T03:31:26;3.20;99.90
11925;DHT22;6022;48.768;18.608;2023-02-14T03:34:07;3.20;99.90
11925;DHT22;6022;48.768;18.608;2023-02-14T03:37:11;3.30;99.90
11925;DHT22;6022;48.768;18.608;2023-02-14T03:46:15;3.10;99.90
11925;DHT22;6022;48.768;18.608;2023-02-14T03:48:46;3.10;99.90
11925;DHT22;6022;48.768;18.608;2023-02-14T03:51:17;3.00;99.90
11925;DHT22;6022;48.768;18.608;2023-02-14T03:53:50;2.90;99.90
11925;DHT22;6022;48.768;18.608;2023-02-14T03:56:33;2.60;99.90
11925;DHT22;6022;48.768;18.608;2023-02-14T03:59:13;2.80;99.90
11925;DHT22;6022;48.768;18.608;2023-02-14T04:01:52;2.70;99.90
11925;DHT22;6022;48.768;18.608;2023-02-14T04:04:26;3.00;99.90
11925;DHT22;6022;48.768;18.608;2023-02-14T04:06:57;3.00;99.90
11925;DHT22;6022;48.768;18.608;2023-02-14T04:09:24;3.10;99.90
11925;DHT22;6022;48.768;18.608;2023-02-14T04:11:51;2.90;99.90
11925;DHT22;6022;48.768;18.608;2023-02-14T04:14:18;2.80;99.90
11925;DHT22;6022;48.768;18.608;2023-02-14T04:16:45;3.10;99.90
11925;DHT22;6022;48.768;18.608;2023-02-14T04:19:31;3.00;99.90
11925;DHT22;6022;48.768;18.608;2023-02-14T04:21:58;2.80;99.90
11925;DHT22;6022;48.768;18.608;2023-02-14T04:24:26;2.90;99.90
11925;DHT22;6022;48.768;18.608;2023-02-14T04:26:53;2.70;99.90
11925;DHT22;6022;48.768;18.608;2023-02-14T04:32:11;2.70;99.90
11925;DHT22;6022;48.768;18.608;2023-02-14T04:34:43;2.80;99.90
11925;DHT22;6022;48.768;18.608;2023-02-14T04:37:12;3.10;99.90
11925;DHT22;6022;48.768;18.608;2023-02-14T04:39:40;3.10;99.90
11925;DHT22;6022;48.768;18.608;2023-02-14T04:42:08;3.00;99.90
11925;DHT22;6022;48.768;18.608;2023-02-14T04:44:35;3.30;99.90
11925;DHT22;6022;48.768;18.608;2023-02-14T04:47:04;3.10;99.90
11925;DHT22;6022;48.768;18.608;2023-02-14T04:49:32;3.20;99.90
11925;DHT22;6022;48.768;18.608;2023-02-14T04:52:01;3.20;99.90
11925;DHT22;6022;48.768;18.608;2023-02-14T04:54:29;2.80;99.90
11925;DHT22;6022;48.768;18.608;2023-02-14T04:56:56;2.80;99.90
11925;DHT22;6022;48.768;18.608;2023-02-14T04:59:24;3.20;99.90
11925;DHT22;6022;48.768;18.608;2023-02-14T05:01:52;3.10;99.90
11925;DHT22;6022;48.768;18.608;2023-02-14T05:04:20;3.20;99.90
11925;DHT22;6022;48.768;18.608;2023-02-14T05:06:47;3.20;99.90
11925;DHT22;6022;48.768;18.608;2023-02-14T05:09:15;3.20;99.90
11925;DHT22;6022;48.768;18.608;2023-02-14T05:11:42;3.20;99.90
11925;DHT22;6022;48.768;18.608;2023-02-14T05:14:11;3.20;99.90
11925;DHT22;6022;48.768;18.608;2023-02-14T05:16:39;3.20;99.90
11925;DHT22;6022;48.768;18.608;2023-02-14T05:19:06;3.30;99.90
11925;DHT22;6022;48.768;18.608;2023-02-14T05:21:34;3.50;99.90
11925;DHT22;6022;48.768;18.608;2023-02-14T05:24:02;3.30;99.90
11925;DHT22;6022;48.768;18.608;2023-02-14T05:26:29;3.20;99.90
11925;DHT22;6022;48.768;18.608;2023-02-14T05:28:57;3.30;99.90
11925;DHT22;6022;48.768;18.608;2023-02-14T05:31:24;3.30;99.90
11925;DHT22;6022;48.768;18.608;2023-02-14T05:33:52;3.20;99.90
11925;DHT22;6022;48.768;18.608;2023-02-14T05:36:20;3.30;99.90
11925;DHT22;6022;48.768;18.608;2023-02-14T05:38:47;3.20;99.90
11925;DHT22;6022;48.768;18.608;2023-02-14T05:41:14;3.30;99.90
11925;DHT22;6022;48.768;18.608;2023-02-14T05:43:42;3.10;99.90
11925;DHT22;6022;48.768;18.608;2023-02-14T05:46:12;3.40;99.90
11925;DHT22;6022;48.768;18.608;2023-02-14T05:48:39;3.30;99.90
11925;DHT22;6022;48.768;18.608;2023-02-14T05:51:08;2.90;99.90
11925;DHT22;6022;48.768;18.608;2023-02-14T05:53:37;3.30;99.90
11925;DHT22;6022;48.768;18.608;2023-02-14T05:56:05;3.10;99.90
11925;DHT22;6022;48.768;18.608;2023-02-14T05:58:32;3.20;99.90
11925;DHT22;6022;48.768;18.608;2023-02-14T06:01:00;3.00;99.90
11925;DHT22;6022;48.768;18.608;2023-02-14T06:03:28;3.10;99.90
11925;DHT22;6022;48.768;18.608;2023-02-14T06:05:55;3.40;99.90
11925;DHT22;6022;48.768;18.608;2023-02-14T06:08:23;3.10;99.90
11925;DHT22;6022;48.768;18.608;2023-02-14T06:10:50;3.20;99.90
11925;DHT22;6022;48.768;18.608;2023-02-14T06:13:18;3.10;99.90
11925;DHT22;6022;48.768;18.608;2023-02-14T06:15:45;3.20;99.90
11925;DHT22;6022;48.768;18.608;2023-02-14T06:18:12;3.40;99.90
11925;DHT22;6022;48.768;18.608;2023-02-14T06:20:39;3.20;99.90
11925;DHT22;6022;48.768;18.608;2023-02-14T06:23:07;3.30;99.90
11925;DHT22;6022;48.768;18.608;2023-02-14T06:25:34;3.20;99.90
11925;DHT22;6022;48.768;18.608;2023-02-14T06:28:01;3.20;99.90
11925;DHT22;6022;48.768;18.608;2023-02-14T06:30:28;3.30;99.90
11925;DHT22;6022;48.768;18.608;2023-02-14T06:32:56;3.30;99.90
11925;DHT22;6022;48.768;18.608;2023-02-14T06:35:23;3.30;99.90
11925;DHT22;6022;48.768;18.608;2023-02-14T06:37:50;3.30;99.90
11925;DHT22;6022;48.768;18.608;2023-02-14T06:40:17;3.70;99.90
11925;DHT22;6022;48.768;18.608;2023-02-14T06:42:45;3.60;99.90
11925;DHT22;6022;48.768;18.608;2023-02-14T06:45:12;3.60;99.90
11925;DHT22;6022;48.768;18.608;2023-02-14T06:47:40;3.80;99.90
11925;DHT22;6022;48.768;18.608;2023-02-14T06:50:07;3.50;99.90
11925;DHT22;6022;48.768;18.608;2023-02-14T06:52:38;3.70;99.90
11925;DHT22;6022;48.768;18.608;2023-02-14T06:55:05;3.80;99.90
11925;DHT22;6022;48.768;18.608;2023-02-14T06:57:33;3.90;99.90
11925;DHT22;6022;48.768;18.608;2023-02-14T07:00:02;3.90;99.90
11925;DHT22;6022;48.768;18.608;2023-02-14T07:02:30;4.00;99.90
11925;DHT22;6022;48.768;18.608;2023-02-14T07:04:57;4.10;99.90
11925;DHT22;6022;48.768;18.608;2023-02-14T07:07:25;4.30;99.90
11925;DHT22;6022;48.768;18.608;2023-02-14T07:09:52;4.40;99.90
11925;DHT22;6022;48.768;18.608;2023-02-14T07:12:19;4.10;99.90
11925;DHT22;6022;48.768;18.608;2023-02-14T07:14:47;4.30;99.90
11925;DHT22;6022;48.768;18.608;2023-02-14T07:17:14;4.60;99.90
11925;DHT22;6022;48.768;18.608;2023-02-14T07:19:43;4.40;99.90
11925;DHT22;6022;48.768;18.608;2023-02-14T07:22:14;4.40;99.90
11925;DHT22;6022;48.768;18.608;2023-02-14T07:24:57;4.30;99.90
11925;DHT22;6022;48.768;18.608;2023-02-14T07:27:25;4.50;99.90
11925;DHT22;6022;48.768;18.608;2023-02-14T07:29:52;4.60;99.90
11925;DHT22;6022;48.768;18.608;2023-02-14T07:32:20;4.60;99.90
11925;DHT22;6022;48.768;18.608;2023-02-14T07:34:50;4.30;99.90
11925;DHT22;6022;48.768;18.608;2023-02-14T07:37:30;4.70;99.90
11925;DHT22;6022;48.768;18.608;2023-02-14T07:39:58;4.60;99.90
11925;DHT22;6022;48.768;18.608;2023-02-14T07:42:31;4.40;99.90
11925;DHT22;6022;48.768;18.608;2023-02-14T07:45:12;4.40;99.90
11925;DHT22;6022;48.768;18.608;2023-02-14T07:47:49;4.50;99.90
11925;DHT22;6022;48.768;18.608;2023-02-14T07:50:19;4.70;99.90
11925;DHT22;6022;48.768;18.608;2023-02-14T07:52:47;4.80;99.90
11925;DHT22;6022;48.768;18.608;2023-02-14T07:55:18;4.70;99.90
11925;DHT22;6022;48.768;18.608;2023-02-14T07:57:48;4.70;99.90
11925;DHT22;6022;48.768;18.608;2023-02-14T08:00:16;4.70;99.90
11925;DHT22;6022;48.768;18.608;2023-02-14T08:02:44;4.70;99.90
11925;DHT22;6022;48.768;18.608;2023-02-14T08:05:12;4.70;99.90
11925;DHT22;6022;48.768;18.608;2023-02-14T08:07:40;4.80;99.90
11925;DHT22;6022;48.768;18.608;2023-02-14T08:10:10;4.90;99.90
11925;DHT22;6022;48.768;18.608;2023-02-14T08:12:42;4.90;99.90
11925;DHT22;6022;48.768;18.608;2023-02-14T08:15:36;5.20;99.90
11925;DHT22;6022;48.768;18.608;2023-02-14T08:18:25;5.20;99.90
11925;DHT22;6022;48.768;18.608;2023-02-14T08:21:08;5.40;99.90
11925;DHT22;6022;48.768;18.608;2023-02-14T08:23:42;5.30;99.90
11925;DHT22;6022;48.768;18.608;2023-02-14T08:26:13;5.80;99.90
11925;DHT22;6022;48.768;18.608;2023-02-14T08:28:43;5.60;99.90
11925;DHT22;6022;48.768;18.608;2023-02-14T08:31:11;6.20;99.90
11925;DHT22;6022;48.768;18.608;2023-02-14T08:34:02;6.50;99.90
11925;DHT22;6022;48.768;18.608;2023-02-14T08:36:30;6.40;99.90
11925;DHT22;6022;48.768;18.608;2023-02-14T08:38:58;6.50;99.90
11925;DHT22;6022;48.768;18.608;2023-02-14T08:41:26;6.30;99.90
11925;DHT22;6022;48.768;18.608;2023-02-14T08:43:57;6.40;99.90
11925;DHT22;6022;48.768;18.608;2023-02-14T08:46:26;6.30;99.90
11925;DHT22;6022;48.768;18.608;2023-02-14T08:48:54;6.40;99.90
11925;DHT22;6022;48.768;18.608;2023-02-14T08:51:22;6.40;99.90
11925;DHT22;6022;48.768;18.608;2023-02-14T08:53:52;6.50;99.90
11925;DHT22;6022;48.768;18.608;2023-02-14T08:56:25;7.40;99.90
11925;DHT22;6022;48.768;18.608;2023-02-14T08:58:53;8.50;99.90
11925;DHT22;6022;48.768;18.608;2023-02-14T09:01:21;8.60;99.90
11925;DHT22;6022;48.768;18.608;2023-02-14T09:03:50;9.40;99.90
11925;DHT22;6022;48.768;18.608;2023-02-14T09:06:17;9.10;99.90
11925;DHT22;6022;48.768;18.608;2023-02-14T09:08:48;8.90;99.90
11925;DHT22;6022;48.768;18.608;2023-02-14T09:11:19;9.60;99.90
11925;DHT22;6022;48.768;18.608;2023-02-14T09:13:49;9.70;99.90
11925;DHT22;6022;48.768;18.608;2023-02-14T09:16:23;9.90;99.90
11925;DHT22;6022;48.768;18.608;2023-02-14T09:18:51;9.90;99.90
11925;DHT22;6022;48.768;18.608;2023-02-14T09:21:23;9.80;99.90
11925;DHT22;6022;48.768;18.608;2023-02-14T09:23:53;9.80;99.90
11925;DHT22;6022;48.768;18.608;2023-02-14T09:26:21;9.80;99.90
11925;DHT22;6022;48.768;18.608;2023-02-14T09:28:48;9.90;99.90
11925;DHT22;6022;48.768;18.608;2023-02-14T09:31:18;10.40;99.90
11925;DHT22;6022;48.768;18.608;2023-02-14T09:33:50;10.10;99.90
11925;DHT22;6022;48.768;18.608;2023-02-14T09:36:37;10.00;99.90
11925;DHT22;6022;48.768;18.608;2023-02-14T09:39:27;10.60;99.90
11925;DHT22;6022;48.768;18.608;2023-02-14T09:42:26;10.60;99.90
11925;DHT22;6022;48.768;18.608;2023-02-14T09:45:19;10.60;99.90
11925;DHT22;6022;48.768;18.608;2023-02-14T09:47:58;10.50;99.90
11925;DHT22;6022;48.768;18.608;2023-02-14T09:50:46;10.40;99.90
11925;DHT22;6022;48.768;18.608;2023-02-14T09:53:27;10.90;99.90
11925;DHT22;6022;48.768;18.608;2023-02-14T10:05:05;11.00;99.90
11925;DHT22;6022;48.768;18.608;2023-02-14T10:07:49;10.90;99.90
11925;DHT22;6022;48.768;18.608;2023-02-14T10:10:45;11.50;99.90
11925;DHT22;6022;48.768;18.608;2023-02-14T10:13:34;10.90;99.90
11925;DHT22;6022;48.768;18.608;2023-02-14T10:22:41;10.80;99.90
11925;DHT22;6022;48.768;18.608;2023-02-14T10:25:21;10.70;99.90
11925;DHT22;6022;48.768;18.608;2023-02-14T10:27:57;11.10;99.90
11925;DHT22;6022;48.768;18.608;2023-02-14T10:30:36;11.50;99.90
11925;DHT22;6022;48.768;18.608;2023-02-14T10:33:16;12.30;99.90
11925;DHT22;6022;48.768;18.608;2023-02-14T10:35:49;12.70;99.90
11925;DHT22;6022;48.768;18.608;2023-02-14T10:47:14;12.90;99.90
11925;DHT22;6022;48.768;18.608;2023-02-14T10:50:38;12.80;99.90
11925;DHT22;6022;48.768;18.608;2023-02-14T10:56:06;12.70;99.90
11925;DHT22;6022;48.768;18.608;2023-02-14T10:58:40;12.70;99.90
11925;DHT22;6022;48.768;18.608;2023-02-14T11:01:12;13.30;99.70
11925;DHT22;6022;48.768;18.608;2023-02-14T11:03:55;13.30;98.50
11925;DHT22;6022;48.768;18.608;2023-02-14T11:06:29;13.30;99.90
11925;DHT22;6022;48.768;18.608;2023-02-14T11:08:57;13.10;98.30
11925;DHT22;6022;48.768;18.608;2023-02-14T11:11:47;13.40;97.20
11925;DHT22;6022;48.768;18.608;2023-02-14T11:17:00;13.60;96.30
11925;DHT22;6022;48.768;18.608;2023-02-14T11:19:58;13.80;96.50
11925;DHT22;6022;48.768;18.608;2023-02-14T11:22:35;14.00;96.00
11925;DHT22;6022;48.768;18.608;2023-02-14T11:25:54;13.60;94.20
11925;DHT22;6022;48.768;18.608;2023-02-14T11:28:33;13.70;94.70
11925;DHT22;6022;48.768;18.608;2023-02-14T11:31:01;13.90;96.10
11925;DHT22;6022;48.768;18.608;2023-02-14T11:36:11;13.50;94.40
11925;DHT22;6022;48.768;18.608;2023-02-14T11:38:44;13.30;94.60
11925;DHT22;6022;48.768;18.608;2023-02-14T11:41:20;13.20;95.40
11925;DHT22;6022;48.768;18.608;2023-02-14T11:44:08;13.30;95.60
11925;DHT22;6022;48.768;18.608;2023-02-14T11:46:52;13.60;94.40
11925;DHT22;6022;48.768;18.608;2023-02-14T11:49:31;12.60;95.20
11925;DHT22;6022;48.768;18.608;2023-02-14T11:52:09;12.30;96.30
11925;DHT22;6022;48.768;18.608;2023-02-14T11:54:42;12.50;96.80
11925;DHT22;6022;48.768;18.608;2023-02-14T11:57:23;13.50;95.50
11925;DHT22;6022;48.768;18.608;2023-02-14T11:59:56;13.30;94.80
11925;DHT22;6022;48.768;18.608;2023-02-14T12:02:43;13.20;95.00
11925;DHT22;6022;48.768;18.608;2023-02-14T12:05:17;13.20;94.60
11925;DHT22;6022;48.768;18.608;2023-02-14T12:08:04;13.50;95.00
11925;DHT22;6022;48.768;18.608;2023-02-14T12:10:35;13.70;94.70
11925;DHT22;6022;48.768;18.608;2023-02-14T12:32:48;12.30;95.20
11925;DHT22;6022;48.768;18.608;2023-02-14T12:41:43;12.60;95.40
11925;DHT22;6022;48.768;18.608;2023-02-14T12:44:41;13.00;95.80
11925;DHT22;6022;48.768;18.608;2023-02-14T12:47:29;13.20;95.20
11925;DHT22;6022;48.768;18.608;2023-02-14T12:50:24;13.60;96.10
11925;DHT22;6022;48.768;18.608;2023-02-14T12:59:50;13.80;92.40
11925;DHT22;6022;48.768;18.608;2023-02-14T13:08:29;12.90;94.80
11925;DHT22;6022;48.768;18.608;2023-02-14T13:11:14;12.30;94.40
11925;DHT22;6022;48.768;18.608;2023-02-14T13:14:25;12.30;94.60
11925;DHT22;6022;48.768;18.608;2023-02-14T13:17:23;12.70;95.10
11925;DHT22;6022;48.768;18.608;2023-02-14T13:23:39;12.70;95.50
11925;DHT22;6022;48.768;18.608;2023-02-14T13:26:17;12.70;95.30
11925;DHT22;6022;48.768;18.608;2023-02-14T13:29:00;12.60;95.40
11925;DHT22;6022;48.768;18.608;2023-02-14T13:31:32;12.10;96.80
11925;DHT22;6022;48.768;18.608;2023-02-14T13:34:05;12.20;96.60
11925;DHT22;6022;48.768;18.608;2023-02-14T13:36:40;11.90;96.30
11925;DHT22;6022;48.768;18.608;2023-02-14T13:39:17;12.10;96.90
11925;DHT22;6022;48.768;18.608;2023-02-14T13:42:04;11.80;96.90
11925;DHT22;6022;48.768;18.608;2023-02-14T13:44:43;11.90;97.20
11925;DHT22;6022;48.768;18.608;2023-02-14T13:47:29;11.70;98.00
11925;DHT22;6022;48.768;18.608;2023-02-14T13:50:02;11.60;98.60
11925;DHT22;6022;48.768;18.608;2023-02-14T13:52:41;11.40;98.70
11925;DHT22;6022;48.768;18.608;2023-02-14T13:55:25;11.30;98.90
11925;DHT22;6022;48.768;18.608;2023-02-14T14:00:40;11.80;98.60
11925;DHT22;6022;48.768;18.608;2023-02-14T14:08:44;11.40;99.50
11925;DHT22;6022;48.768;18.608;2023-02-14T14:14:09;11.50;99.90
11925;DHT22;6022;48.768;18.608;2023-02-14T14:16:58;11.30;99.80
11925;DHT22;6022;48.768;18.608;2023-02-14T14:22:08;11.10;99.90
11925;DHT22;6022;48.768;18.608;2023-02-14T14:25:05;11.30;99.90
11925;DHT22;6022;48.768;18.608;2023-02-14T14:27:49;11.50;99.90
11925;DHT22;6022;48.768;18.608;2023-02-14T14:30:18;11.30;99.90
11925;DHT22;6022;48.768;18.608;2023-02-14T14:33:15;10.90;99.90
11925;DHT22;6022;48.768;18.608;2023-02-14T14:35:56;10.90;99.90
11925;DHT22;6022;48.768;18.608;2023-02-14T14:38:29;10.30;99.90
11925;DHT22;6022;48.768;18.608;2023-02-14T14:40:59;10.50;99.90
11925;DHT22;6022;48.768;18.608;2023-02-14T14:43:35;10.40;99.90
11925;DHT22;6022;48.768;18.608;2023-02-14T14:46:09;10.60;99.90
11925;DHT22;6022;48.768;18.608;2023-02-14T14:48:46;10.50;99.90
11925;DHT22;6022;48.768;18.608;2023-02-14T14:51:23;10.50;99.90
11925;DHT22;6022;48.768;18.608;2023-02-14T14:54:20;10.50;99.90
11925;DHT22;6022;48.768;18.608;2023-02-14T14:56:59;10.30;99.90
11925;DHT22;6022;48.768;18.608;2023-02-14T14:59:29;10.40;99.90
11925;DHT22;6022;48.768;18.608;2023-02-14T15:02:19;10.20;99.90
11925;DHT22;6022;48.768;18.608;2023-02-14T15:04:52;10.00;99.90
11925;DHT22;6022;48.768;18.608;2023-02-14T15:07:26;10.30;99.90
11925;DHT22;6022;48.768;18.608;2023-02-14T15:10:00;10.00;99.90
11925;DHT22;6022;48.768;18.608;2023-02-14T15:12:28;10.10;99.90
11925;DHT22;6022;48.768;18.608;2023-02-14T15:15:17;10.10;99.90
11925;DHT22;6022;48.768;18.608;2023-02-14T15:17:45;9.80;99.90
11925;DHT22;6022;48.768;18.608;2023-02-14T15:20:21;9.90;99.90
11925;DHT22;6022;48.768;18.608;2023-02-14T15:22:56;9.70;99.90
11925;DHT22;6022;48.768;18.608;2023-02-14T15:25:29;9.60;99.90
11925;DHT22;6022;48.768;18.608;2023-02-14T15:28:01;9.40;99.90
11925;DHT22;6022;48.768;18.608;2023-02-14T15:30:31;9.50;99.90
11925;DHT22;6022;48.768;18.608;2023-02-14T15:33:23;9.40;99.90
11925;DHT22;6022;48.768;18.608;2023-02-14T15:35:54;9.20;99.90
11925;DHT22;6022;48.768;18.608;2023-02-14T15:38:28;8.90;99.90
11925;DHT22;6022;48.768;18.608;2023-02-14T15:40:59;8.70;99.90
11925;DHT22;6022;48.768;18.608;2023-02-14T15:43:32;9.10;99.90
11925;DHT22;6022;48.768;18.608;2023-02-14T15:49:10;8.80;99.90
11925;DHT22;6022;48.768;18.608;2023-02-14T15:51:47;8.30;99.90
11925;DHT22;6022;48.768;18.608;2023-02-14T15:54:40;8.60;99.90
11925;DHT22;6022;48.768;18.608;2023-02-14T15:57:23;8.30;99.90
11925;DHT22;6022;48.768;18.608;2023-02-14T15:59:56;8.00;99.90
11925;DHT22;6022;48.768;18.608;2023-02-14T16:02:42;7.70;99.90
11925;DHT22;6022;48.768;18.608;2023-02-14T16:05:23;7.80;99.90
11925;DHT22;6022;48.768;18.608;2023-02-14T16:08:02;7.90;99.90
11925;DHT22;6022;48.768;18.608;2023-02-14T16:10:36;7.70;99.90
11925;DHT22;6022;48.768;18.608;2023-02-14T16:13:31;7.80;99.90
11925;DHT22;6022;48.768;18.608;2023-02-14T16:16:11;7.80;99.90
11925;DHT22;6022;48.768;18.608;2023-02-14T16:26:38;7.30;99.90
11925;DHT22;6022;48.768;18.608;2023-02-14T16:29:15;6.90;99.90
11925;DHT22;6022;48.768;18.608;2023-02-14T16:31:54;7.00;99.90
11925;DHT22;6022;48.768;18.608;2023-02-14T16:34:42;7.00;99.90
11925;DHT22;6022;48.768;18.608;2023-02-14T16:37:22;7.20;99.90
11925;DHT22;6022;48.768;18.608;2023-02-14T16:39:52;6.90;99.90
11925;DHT22;6022;48.768;18.608;2023-02-14T16:42:29;6.80;99.90
11925;DHT22;6022;48.768;18.608;2023-02-14T16:44:58;6.90;99.90
11925;DHT22;6022;48.768;18.608;2023-02-14T16:47:29;7.00;99.90
11925;DHT22;6022;48.768;18.608;2023-02-14T16:50:07;7.00;99.90
11925;DHT22;6022;48.768;18.608;2023-02-14T16:52:35;6.40;99.90
11925;DHT22;6022;48.768;18.608;2023-02-14T16:55:03;6.50;99.90
11925;DHT22;6022;48.768;18.608;2023-02-14T16:57:42;6.60;99.90
11925;DHT22;6022;48.768;18.608;2023-02-14T17:00:15;6.70;99.90
11925;DHT22;6022;48.768;18.608;2023-02-14T17:02:43;6.50;99.90
11925;DHT22;6022;48.768;18.608;2023-02-14T17:05:11;6.20;99.90
11925;DHT22;6022;48.768;18.608;2023-02-14T17:07:40;6.10;99.90
11925;DHT22;6022;48.768;18.608;2023-02-14T17:10:14;6.10;99.90
11925;DHT22;6022;48.768;18.608;2023-02-14T17:12:48;6.40;99.90
11925;DHT22;6022;48.768;18.608;2023-02-14T17:15:19;6.10;99.90
11925;DHT22;6022;48.768;18.608;2023-02-14T17:17:51;6.20;99.90
11925;DHT22;6022;48.768;18.608;2023-02-14T17:20:25;6.00;99.90
11925;DHT22;6022;48.768;18.608;2023-02-14T17:22:54;6.30;99.90
11925;DHT22;6022;48.768;18.608;2023-02-14T17:25:26;5.80;99.90
11925;DHT22;6022;48.768;18.608;2023-02-14T17:27:56;5.80;99.90
11925;DHT22;6022;48.768;18.608;2023-02-14T17:30:32;5.80;99.90
11925;DHT22;6022;48.768;18.608;2023-02-14T17:33:03;5.70;99.90
11925;DHT22;6022;48.768;18.608;2023-02-14T17:35:34;5.70;99.90
11925;DHT22;6022;48.768;18.608;2023-02-14T17:38:07;5.70;99.90
11925;DHT22;6022;48.768;18.608;2023-02-14T17:40:34;5.70;99.90
11925;DHT22;6022;48.768;18.608;2023-02-14T17:43:01;5.60;99.90
11925;DHT22;6022;48.768;18.608;2023-02-14T17:45:34;5.60;99.90
11925;DHT22;6022;48.768;18.608;2023-02-14T17:48:12;5.30;99.90
11925;DHT22;6022;48.768;18.608;2023-02-14T17:51:00;5.40;99.90
11925;DHT22;6022;48.768;18.608;2023-02-14T17:53:53;5.40;99.90
11925;DHT22;6022;48.768;18.608;2023-02-14T17:56:41;5.30;99.90
11925;DHT22;6022;48.768;18.608;2023-02-14T17:59:12;4.90;99.90
11925;DHT22;6022;48.768;18.608;2023-02-14T18:01:44;5.20;99.90
11925;DHT22;6022;48.768;18.608;2023-02-14T18:04:22;4.70;99.90
11925;DHT22;6022;48.768;18.608;2023-02-14T18:06:58;4.60;99.90
11925;DHT22;6022;48.768;18.608;2023-02-14T18:09:43;4.60;99.90
11925;DHT22;6022;48.768;18.608;2023-02-14T18:12:10;4.50;99.90
11925;DHT22;6022;48.768;18.608;2023-02-14T18:14:59;4.20;99.90
11925;DHT22;6022;48.768;18.608;2023-02-14T18:17:29;4.20;99.90
11925;DHT22;6022;48.768;18.608;2023-02-14T18:19:57;4.00;99.90
11925;DHT22;6022;48.768;18.608;2023-02-14T18:22:25;4.00;99.90
11925;DHT22;6022;48.768;18.608;2023-02-14T18:24:54;3.90;99.90
11925;DHT22;6022;48.768;18.608;2023-02-14T18:27:27;3.80;99.90
11925;DHT22;6022;48.768;18.608;2023-02-14T18:29:58;3.70;99.90
11925;DHT22;6022;48.768;18.608;2023-02-14T18:33:03;3.90;99.90
11925;DHT22;6022;48.768;18.608;2023-02-14T18:35:44;3.70;99.90
11925;DHT22;6022;48.768;18.608;2023-02-14T18:38:15;3.70;99.90
11925;DHT22;6022;48.768;18.608;2023-02-14T18:41:01;3.60;99.90
11925;DHT22;6022;48.768;18.608;2023-02-14T18:43:32;3.60;99.90
11925;DHT22;6022;48.768;18.608;2023-02-14T18:46:25;3.60;99.90
11925;DHT22;6022;48.768;18.608;2023-02-14T18:48:56;3.30;99.90
11925;DHT22;6022;48.768;18.608;2023-02-14T18:51:28;3.40;99.90
11925;DHT22;6022;48.768;18.608;2023-02-14T18:54:03;3.50;99.90
11925;DHT22;6022;48.768;18.608;2023-02-14T18:56:42;3.50;99.90
11925;DHT22;6022;48.768;18.608;2023-02-14T19:00:07;3.20;99.90
11925;DHT22;6022;48.768;18.608;2023-02-14T19:03:30;3.20;99.90
11925;DHT22;6022;48.768;18.608;2023-02-14T19:05:59;3.10;99.90
11925;DHT22;6022;48.768;18.608;2023-02-14T19:08:33;3.00;99.90
11925;DHT22;6022;48.768;18.608;2023-02-14T19:11:18;3.30;99.90
11925;DHT22;6022;48.768;18.608;2023-02-14T19:13:53;3.00;99.90
11925;DHT22;6022;48.768;18.608;2023-02-14T19:16:32;2.90;99.90
11925;DHT22;6022;48.768;18.608;2023-02-14T19:19:02;2.70;99.90
11925;DHT22;6022;48.768;18.608;2023-02-14T19:21:33;3.10;99.90